Time;durP1;ratioP1;P1;durP2;ratioP2;P2;SDS_P1;SDS_P2;PMS_P1;PMS_P2;Temp;Humidity;BMP_temperature;BMP_pressure;BME280_temperature;BME280_humidity;BME280_pressure;Samples;Min_cycle;Max_cycle;Signal;HPM_P1;HPM_P2
2022/04/02 00:01:15;;;;;;;19.63;17.63;;;28.10;81.60;;;;;;5125730;28;20105;-55
2022/04/02 00:03:41;;;;;;;21.25;18.83;;;28.10;81.70;;;;;;5125956;28;20012;-54
2022/04/02 00:06:08;;;;;;;30.10;25.02;;;28.10;81.30;;;;;;5125729;28;20015;-52
2022/04/02 00:08:35;;;;;;;41.22;32.70;;;28.10;81.30;;;;;;5126239;28;20015;-54
2022/04/02 00:11:02;;;;;;;48.17;35.80;;;28.00;80.80;;;;;;5125577;28;20023;-50
2022/04/02 00:13:31;;;;;;;40.63;32.78;;;28.00;80.60;;;;;;5125985;28;20023;-52
2022/04/02 00:15:59;;;;;;;42.95;33.50;;;28.00;80.60;;;;;;5125715;28;20028;-54
2022/04/02 00:18:26;;;;;;;42.33;31.83;;;28.00;80.30;;;;;;5125959;28;20253;-55
2022/04/02 00:20:52;;;;;;;44.13;32.42;;;28.00;80.40;;;;;;5125326;28;20028;-53
2022/04/02 00:26:08;;;;;;;40.65;30.25;;;28.00;80.20;;;;;;5125366;28;20022;-56
2022/04/02 00:28:40;;;;;;;34.70;27.23;;;28.00;79.40;;;;;;5125888;28;20326;-53
2022/04/02 00:31:08;;;;;;;30.50;24.20;;;27.90;79.10;;;;;;5125143;28;20028;-53
2022/04/02 00:33:35;;;;;;;27.90;22.38;;;27.90;78.90;;;;;;5124902;28;20111;-53
2022/04/02 00:36:03;;;;;;;30.48;21.33;;;28.00;78.80;;;;;;5125324;28;20090;-46
2022/04/02 00:38:29;;;;;;;29.42;22.05;;;28.00;78.90;;;;;;5125492;28;20087;-51
2022/04/02 00:40:56;;;;;;;28.13;22.73;;;28.00;78.60;;;;;;5124898;28;20312;-55
2022/04/02 00:43:28;;;;;;;25.83;20.85;;;28.00;78.50;;;;;;5125513;28;20027;-49
2022/04/02 00:45:57;;;;;;;24.23;21.70;;;28.00;78.30;;;;;;5124944;28;20016;-55
2022/04/02 00:48:26;;;;;;;25.55;22.80;;;27.90;77.90;;;;;;5124988;28;20036;-54
2022/04/02 00:50:58;;;;;;;24.73;22.20;;;27.90;77.50;;;;;;5124882;28;20050;-54
2022/04/02 00:53:29;;;;;;;22.58;20.08;;;27.90;77.70;;;;;;5125110;28;20019;-55
2022/04/02 00:55:56;;;;;;;26.23;20.85;;;27.90;77.70;;;;;;5124914;28;20046;-56
2022/04/02 00:58:22;;;;;;;21.80;19.50;;;27.90;77.50;;;;;;5125070;28;20083;-59
2022/04/02 01:00:49;;;;;;;21.95;19.00;;;27.90;77.50;;;;;;5124602;28;20031;-55
2022/04/02 01:03:16;;;;;;;21.13;18.92;;;27.90;77.60;;;;;;5125080;28;20015;-59
2022/04/02 01:05:44;;;;;;;22.58;20.27;;;27.90;77.60;;;;;;5124700;28;20032;-53
2022/04/02 01:08:11;;;;;;;26.67;23.13;;;27.90;77.50;;;;;;5124996;28;20195;-56
2022/04/02 01:10:39;;;;;;;27.83;22.65;;;27.90;77.30;;;;;;5124712;28;20330;-55
2022/04/02 01:13:07;;;;;;;20.88;18.50;;;27.90;77.60;;;;;;5124850;28;20309;-55
2022/04/02 01:15:34;;;;;;;19.75;17.65;;;27.90;77.00;;;;;;5124420;28;20027;-56
2022/04/02 01:18:01;;;;;;;20.92;16.67;;;27.80;76.20;;;;;;5124551;28;20019;-53
2022/04/02 01:20:29;;;;;;;18.88;16.88;;;27.80;75.90;;;;;;5124514;28;20032;-54
2022/04/02 01:22:57;;;;;;;21.23;16.75;;;27.80;76.10;;;;;;5124652;28;20314;-56
2022/04/02 01:25:23;;;;;;;22.15;17.27;;;27.80;75.90;;;;;;5124663;28;20055;-53
2022/04/02 01:27:50;;;;;;;20.48;17.70;;;27.80;76.20;;;;;;5124836;28;20022;-52
2022/04/02 01:30:17;;;;;;;18.77;16.98;;;27.80;76.10;;;;;;5124264;28;20380;-51
2022/04/02 01:32:43;;;;;;;19.27;16.92;;;27.80;76.20;;;;;;5124736;28;20056;-57
2022/04/02 01:35:12;;;;;;;17.88;16.17;;;27.80;76.20;;;;;;5124672;28;20023;-53
2022/04/02 01:37:39;;;;;;;20.25;16.83;;;27.80;76.10;;;;;;5124274;28;20034;-56
2022/04/02 01:40:07;;;;;;;19.85;16.08;;;27.80;76.00;;;;;;5124330;28;20274;-54
2022/04/02 01:42:34;;;;;;;19.35;15.65;;;27.80;76.10;;;;;;5124317;28;20032;-56
2022/04/02 01:45:00;;;;;;;17.48;15.52;;;27.80;75.70;;;;;;5124236;28;20091;-58
2022/04/02 01:47:27;;;;;;;20.67;16.20;;;27.80;75.70;;;;;;5124552;28;20016;-57
2022/04/02 01:49:54;;;;;;;21.17;15.88;;;27.80;75.70;;;;;;5124276;28;20074;-56
2022/04/02 01:52:21;;;;;;;16.98;15.23;;;27.80;75.20;;;;;;5124142;28;20028;-56
2022/04/02 01:54:49;;;;;;;17.45;15.75;;;27.80;74.80;;;;;;5124255;28;20307;-55
2022/04/02 01:57:17;;;;;;;17.98;14.88;;;27.70;74.40;;;;;;5124294;28;20294;-53
2022/04/02 01:59:48;;;;;;;16.15;14.50;;;27.80;74.90;;;;;;5123927;28;20019;-52
2022/04/02 02:02:15;;;;;;;16.40;14.00;;;27.80;74.70;;;;;;5124202;28;20028;-54
2022/04/02 02:04:41;;;;;;;16.27;14.50;;;27.80;74.90;;;;;;5124170;28;20189;-54
2022/04/02 02:07:08;;;;;;;16.08;14.50;;;27.70;74.80;;;;;;5124019;28;20047;-53
2022/04/02 02:09:35;;;;;;;16.90;14.50;;;27.70;74.60;;;;;;5123995;28;20031;-54
2022/04/02 02:12:03;;;;;;;16.35;14.52;;;27.70;74.60;;;;;;5124163;28;20054;-55
2022/04/02 02:14:31;;;;;;;17.05;14.57;;;27.70;74.50;;;;;;5124328;28;20090;-58
2022/04/02 02:16:58;;;;;;;15.73;14.27;;;27.70;74.10;;;;;;5127891;28;20068;-52
2022/04/02 02:19:25;;;;;;;16.80;15.13;;;27.70;74.70;;;;;;5127810;28;20030;-51
2022/04/02 02:21:51;;;;;;;17.00;15.02;;;27.70;74.20;;;;;;5127623;28;20268;-51
2022/04/02 02:24:18;;;;;;;16.25;14.55;;;27.70;74.30;;;;;;5127718;28;20253;-55
2022/04/02 02:26:45;;;;;;;16.83;14.57;;;27.70;73.90;;;;;;5127751;28;20024;-54
2022/04/02 02:29:11;;;;;;;16.52;14.80;;;27.70;74.20;;;;;;5127463;28;20023;-53
2022/04/02 02:31:38;;;;;;;17.73;13.93;;;27.70;74.30;;;;;;5127704;28;20058;-54
2022/04/02 02:36:50;;;;;;;18.60;14.75;;;27.70;74.10;;;;;;5112558;28;20041;-52
2022/04/02 02:39:16;;;;;;;16.75;14.95;;;27.70;74.00;;;;;;5127588;28;20020;-53
2022/04/02 02:41:43;;;;;;;16.13;14.20;;;27.70;73.60;;;;;;5127401;28;20019;-54
2022/04/02 02:44:09;;;;;;;15.30;13.60;;;27.70;74.00;;;;;;5127560;28;20015;-52
2022/04/02 02:46:36;;;;;;;15.98;13.60;;;27.60;73.70;;;;;;5127688;28;20051;-50
2022/04/02 02:49:03;;;;;;;17.27;13.65;;;27.60;73.60;;;;;;5127137;28;20043;-54
2022/04/02 02:51:29;;;;;;;15.68;14.07;;;27.60;73.80;;;;;;5127328;28;20027;-53
2022/04/02 02:53:56;;;;;;;16.63;14.25;;;27.60;73.50;;;;;;5127297;28;20315;-54
2022/04/02 02:56:22;;;;;;;15.88;14.00;;;27.70;73.80;;;;;;5127235;28;20266;-52
2022/04/02 02:58:49;;;;;;;18.73;14.70;;;27.60;73.40;;;;;;5127130;28;20016;-54
2022/04/02 03:01:16;;;;;;;16.45;14.60;;;27.60;73.50;;;;;;5127261;28;20019;-52
2022/04/02 03:03:43;;;;;;;18.95;14.98;;;27.60;73.70;;;;;;5127066;28;20022;-54
2022/04/02 03:06:09;;;;;;;15.00;13.25;;;27.60;73.80;;;;;;5126760;28;20019;-52
2022/04/02 03:08:36;;;;;;;15.98;14.15;;;27.60;73.70;;;;;;5127493;28;20360;-54
2022/04/02 03:11:03;;;;;;;17.98;13.85;;;27.60;73.60;;;;;;5127155;28;20073;-56
2022/04/02 03:13:29;;;;;;;16.88;14.48;;;27.60;73.60;;;;;;5127198;28;20311;-57
2022/04/02 03:15:56;;;;;;;16.02;13.60;;;27.60;73.40;;;;;;5126935;28;20024;-58
2022/04/02 03:18:22;;;;;;;17.20;14.45;;;27.50;73.60;;;;;;5127301;28;20375;-56
2022/04/02 03:20:49;;;;;;;15.98;14.15;;;27.50;73.30;;;;;;5126700;28;20051;-52
2022/04/02 03:23:15;;;;;;;16.15;14.35;;;27.50;73.30;;;;;;5127091;28;20185;-54
2022/04/02 03:25:42;;;;;;;16.52;14.05;;;27.50;73.30;;;;;;5126374;28;20026;-53
2022/04/02 03:28:09;;;;;;;15.77;14.18;;;27.50;73.00;;;;;;5126863;28;20035;-55
2022/04/02 03:30:37;;;;;;;16.98;13.68;;;27.50;73.30;;;;;;5126445;28;20012;-57
2022/04/02 03:33:04;;;;;;;15.20;13.63;;;27.50;73.30;;;;;;5126771;28;20023;-54
2022/04/02 03:35:31;;;;;;;17.25;13.95;;;27.50;73.30;;;;;;5126294;28;20019;-58
2022/04/02 03:37:58;;;;;;;16.85;14.40;;;27.50;73.20;;;;;;5126614;28;20028;-53
2022/04/02 03:40:26;;;;;;;19.92;14.63;;;27.40;73.20;;;;;;5126237;28;20050;-55
2022/04/02 03:42:53;;;;;;;17.08;15.27;;;27.40;73.20;;;;;;5126426;28;20296;-60
2022/04/02 03:45:22;;;;;;;17.80;14.93;;;27.40;73.40;;;;;;5126451;28;20022;-53
2022/04/02 03:47:49;;;;;;;16.70;15.07;;;27.40;73.40;;;;;;5126182;28;20061;-56
2022/04/02 03:50:16;;;;;;;17.25;15.27;;;27.40;73.40;;;;;;5125905;28;20047;-56
2022/04/02 03:52:43;;;;;;;37.17;33.30;;;27.40;73.90;;;;;;5126470;28;20133;-52
2022/04/02 03:55:10;;;;;;;51.10;45.80;;;27.40;73.20;;;;;;5126049;28;20208;-55
2022/04/02 03:57:37;;;;;;;40.78;31.73;;;27.40;73.50;;;;;;5126152;28;20030;-52
2022/04/02 04:00:06;;;;;;;28.40;25.48;;;27.40;73.40;;;;;;5126050;28;20032;-55
2022/04/02 04:02:34;;;;;;;24.30;21.90;;;27.40;73.50;;;;;;5126087;28;20035;-57
2022/04/02 04:05:02;;;;;;;20.15;18.20;;;27.40;73.40;;;;;;5125746;28;20065;-49
2022/04/02 04:07:29;;;;;;;18.67;16.67;;;27.30;73.20;;;;;;5126150;28;20094;-48
2022/04/02 04:09:55;;;;;;;17.58;15.95;;;27.40;73.50;;;;;;5125878;28;20020;-51
2022/04/02 04:12:22;;;;;;;16.42;14.60;;;27.40;72.90;;;;;;5125656;28;20032;-58
2022/04/02 04:14:48;;;;;;;15.45;13.90;;;27.30;72.90;;;;;;5125721;28;20015;-55
2022/04/02 04:17:15;;;;;;;16.38;13.52;;;27.30;73.10;;;;;;5125998;28;20103;-53
2022/04/02 04:19:42;;;;;;;15.52;13.73;;;27.30;73.00;;;;;;5125379;28;20189;-52
2022/04/02 04:22:10;;;;;;;17.10;13.38;;;27.30;73.30;;;;;;5125737;28;20073;-53
2022/04/02 04:24:36;;;;;;;15.90;14.18;;;27.30;73.40;;;;;;5125570;28;20015;-55
2022/04/02 04:27:03;;;;;;;15.02;13.45;;;27.30;73.50;;;;;;5125429;28;20028;-53
2022/04/02 04:29:30;;;;;;;15.45;13.85;;;27.30;73.50;;;;;;5125479;28;20094;-52
2022/04/02 04:31:56;;;;;;;15.50;13.90;;;27.30;73.30;;;;;;5125500;28;20054;-48
2022/04/02 04:34:23;;;;;;;14.40;12.90;;;27.30;73.40;;;;;;5125198;28;20027;-51
2022/04/02 04:36:49;;;;;;;15.35;13.00;;;27.30;73.20;;;;;;5125232;28;20330;-53
2022/04/02 04:39:16;;;;;;;15.02;13.50;;;27.30;73.30;;;;;;5124793;28;20215;-54
2022/04/02 04:41:42;;;;;;;14.27;12.77;;;27.30;73.30;;;;;;5125056;28;20035;-53
2022/04/02 04:44:09;;;;;;;16.40;13.43;;;27.30;73.20;;;;;;5125141;28;20019;-49
2022/04/02 04:46:36;;;;;;;14.85;12.73;;;27.30;72.90;;;;;;5125332;28;20110;-55
2022/04/02 04:49:02;;;;;;;16.25;12.68;;;27.30;72.90;;;;;;5124864;28;20031;-56
2022/04/02 04:51:29;;;;;;;13.73;12.35;;;27.30;72.80;;;;;;5125063;28;20322;-53
2022/04/02 04:53:56;;;;;;;16.27;11.80;;;27.30;72.70;;;;;;5125114;28;20054;-48
2022/04/02 04:56:23;;;;;;;13.35;12.00;;;27.30;72.80;;;;;;5124916;28;20080;-51
2022/04/02 04:58:50;;;;;;;14.30;12.10;;;27.30;72.60;;;;;;5124874;28;20091;-56
2022/04/02 05:01:16;;;;;;;14.15;12.73;;;27.30;72.80;;;;;;5124746;28;20212;-54
2022/04/02 05:03:43;;;;;;;15.18;11.95;;;27.30;72.40;;;;;;5124850;28;20011;-52
2022/04/02 05:06:12;;;;;;;13.07;11.88;;;27.30;72.30;;;;;;5124559;28;20091;-49
2022/04/02 05:08:39;;;;;;;14.52;12.40;;;27.30;72.50;;;;;;5124564;28;20023;-51
2022/04/02 05:11:08;;;;;;;14.00;12.20;;;27.30;72.00;;;;;;5124593;28;20068;-54
2022/04/02 05:13:35;;;;;;;14.13;12.23;;;27.30;72.40;;;;;;5125123;28;20028;-52
2022/04/02 05:16:01;;;;;;;13.15;11.75;;;27.20;72.30;;;;;;5124792;28;20070;-48
2022/04/02 05:18:28;;;;;;;13.90;12.48;;;27.20;72.40;;;;;;5125035;28;20026;-56
2022/04/02 05:20:56;;;;;;;14.25;11.88;;;27.30;72.40;;;;;;5124512;28;20034;-51
2022/04/02 05:23:23;;;;;;;15.05;12.38;;;27.30;72.40;;;;;;5124906;28;20098;-57
2022/04/02 05:25:49;;;;;;;14.32;12.82;;;27.30;72.10;;;;;;5124545;28;20016;-57
2022/04/02 05:28:16;;;;;;;13.80;11.93;;;27.30;72.10;;;;;;5124804;28;20023;-53
2022/04/02 05:30:43;;;;;;;13.93;11.95;;;27.30;72.00;;;;;;5124480;28;20030;-49
2022/04/02 05:33:09;;;;;;;12.70;11.50;;;27.30;72.00;;;;;;5124899;28;20057;-52
2022/04/02 05:35:36;;;;;;;13.32;11.93;;;27.20;71.90;;;;;;5124331;28;20016;-51
2022/04/02 05:38:03;;;;;;;13.13;11.80;;;27.30;72.20;;;;;;5124629;28;20126;-55
2022/04/02 05:40:29;;;;;;;13.35;11.52;;;27.30;72.10;;;;;;5124311;28;20034;-51
2022/04/02 05:42:57;;;;;;;14.80;12.38;;;27.30;71.90;;;;;;5124568;28;20034;-52
2022/04/02 05:45:24;;;;;;;13.02;11.73;;;27.30;71.90;;;;;;5124224;28;20068;-52
2022/04/02 05:47:52;;;;;;;14.90;12.45;;;27.30;71.80;;;;;;5124574;28;20121;-57
2022/04/02 05:50:21;;;;;;;12.85;11.63;;;27.20;71.50;;;;;;5125854;28;20114;-55
2022/04/02 05:52:51;;;;;;;12.52;11.38;;;27.20;71.90;;;;;;5128752;28;20073;-51
2022/04/02 05:55:18;;;;;;;12.82;11.52;;;27.20;71.60;;;;;;5128429;28;20111;-51
2022/04/02 05:57:46;;;;;;;15.25;11.68;;;27.20;71.80;;;;;;5128655;28;20030;-56
2022/04/02 06:00:16;;;;;;;13.95;11.75;;;27.20;71.80;;;;;;5128330;28;20015;-51
2022/04/02 06:02:43;;;;;;;12.63;11.40;;;27.20;71.80;;;;;;5128387;28;20023;-53
2022/04/02 06:05:13;;;;;;;13.30;11.73;;;27.20;72.10;;;;;;5128322;28;20024;-53
2022/04/02 06:07:41;;;;;;;13.60;12.27;;;27.20;72.30;;;;;;5128555;28;20034;-53
2022/04/02 06:10:09;;;;;;;13.75;12.05;;;27.20;72.30;;;;;;5127953;28;20020;-56
2022/04/02 06:12:36;;;;;;;14.88;11.85;;;27.20;72.50;;;;;;5128374;28;20272;-56
2022/04/02 06:15:03;;;;;;;12.48;11.27;;;27.10;72.10;;;;;;5128004;28;20090;-55
2022/04/02 06:17:29;;;;;;;14.35;12.80;;;27.10;72.00;;;;;;5127805;28;20086;-56
2022/04/02 06:19:56;;;;;;;13.25;11.88;;;27.20;72.10;;;;;;5127976;28;20023;-56
2022/04/02 06:22:22;;;;;;;13.70;12.38;;;27.10;72.00;;;;;;5128174;28;20054;-53
2022/04/02 06:24:49;;;;;;;14.18;12.32;;;27.10;72.40;;;;;;5127781;28;20304;-55
2022/04/02 06:27:15;;;;;;;14.23;12.57;;;27.10;72.40;;;;;;5128053;28;20051;-53
2022/04/02 06:29:42;;;;;;;13.30;11.95;;;27.10;72.30;;;;;;5128063;28;20016;-56
2022/04/02 06:32:09;;;;;;;14.40;12.32;;;27.10;72.10;;;;;;5127944;28;20027;-55
2022/04/02 06:34:35;;;;;;;15.23;12.27;;;27.10;72.30;;;;;;5127543;28;20023;-56
2022/04/02 06:37:02;;;;;;;15.65;12.52;;;27.10;72.10;;;;;;5127779;28;20090;-51
2022/04/02 06:39:29;;;;;;;13.98;12.45;;;27.10;72.20;;;;;;5127520;28;20022;-52
2022/04/02 06:41:55;;;;;;;13.35;12.02;;;27.10;72.50;;;;;;5127466;28;20241;-53
2022/04/02 06:44:22;;;;;;;13.90;12.30;;;27.10;72.50;;;;;;5127648;28;20016;-55
2022/04/02 06:46:49;;;;;;;14.65;12.68;;;27.10;72.40;;;;;;5127495;28;20024;-51
2022/04/02 06:49:16;;;;;;;13.57;12.13;;;27.00;72.50;;;;;;5127100;28;20040;-54
2022/04/02 06:51:42;;;;;;;13.77;12.18;;;27.00;72.80;;;;;;5127468;28;20314;-54
2022/04/02 06:54:09;;;;;;;14.30;12.73;;;27.00;72.90;;;;;;5127391;28;20323;-52
2022/04/02 06:56:36;;;;;;;16.08;12.57;;;27.00;73.00;;;;;;5127135;28;20024;-50
2022/04/02 06:59:02;;;;;;;18.13;13.13;;;27.00;73.00;;;;;;5127276;28;20312;-57
2022/04/02 07:01:29;;;;;;;15.10;12.80;;;27.00;73.20;;;;;;5126392;28;20031;-48
2022/04/02 07:03:56;;;;;;;13.57;12.25;;;27.00;72.90;;;;;;5127058;28;20020;-54
2022/04/02 07:06:22;;;;;;;20.15;13.23;;;27.00;73.10;;;;;;5126986;28;20079;-52
2022/04/02 07:08:49;;;;;;;15.52;13.77;;;27.00;73.20;;;;;;5127095;28;20057;-51
2022/04/02 07:11:15;;;;;;;17.30;13.38;;;27.00;73.10;;;;;;5127012;28;20379;-54
2022/04/02 07:13:42;;;;;;;14.57;13.07;;;26.90;73.20;;;;;;5127036;28;20057;-52
2022/04/02 07:16:09;;;;;;;14.43;12.43;;;27.00;73.30;;;;;;5126879;28;20138;-53
2022/04/02 07:18:41;;;;;;;15.75;12.57;;;27.00;73.40;;;;;;5127269;28;20027;-51
2022/04/02 07:21:10;;;;;;;;;;;27.00;73.10;;;;;;5127101;28;20074;-49
2022/04/02 07:23:41;;;;;;;14.82;12.50;;;26.90;73.20;;;;;;5127203;28;20179;-50
2022/04/02 07:26:10;;;;;;;15.98;12.52;;;26.90;73.00;;;;;;5126560;28;20024;-53
2022/04/02 07:28:38;;;;;;;14.02;12.63;;;26.90;73.20;;;;;;5127105;28;20104;-51
2022/04/02 07:31:05;;;;;;;14.10;12.30;;;26.90;73.00;;;;;;5126559;28;20043;-52
2022/04/02 07:33:31;;;;;;;13.98;12.57;;;26.90;73.10;;;;;;5127056;28;20028;-51
2022/04/02 07:36:20;;;;;;;16.50;12.07;;;26.90;72.90;;;;;;5126499;28;20026;-51
2022/04/02 07:39:03;;;;;;;14.25;12.75;;;26.90;72.60;;;;;;5126778;28;20039;-53
2022/04/02 07:41:32;;;;;;;17.13;12.88;;;27.00;72.40;;;;;;5126265;28;20027;-50
2022/04/02 07:44:09;;;;;;;14.13;12.63;;;27.00;72.50;;;;;;5126175;28;20091;-52
2022/04/02 07:46:40;;;;;;;16.65;12.80;;;27.00;72.60;;;;;;5126292;28;20059;-54
2022/04/02 07:49:11;;;;;;;14.15;12.40;;;26.90;72.50;;;;;;5126043;28;20039;-53
2022/04/02 07:51:39;;;;;;;13.93;12.57;;;27.00;72.50;;;;;;5126304;28;20333;-49
2022/04/02 07:54:09;;;;;;;14.35;12.95;;;27.00;72.70;;;;;;5126223;28;20016;-53
2022/04/02 07:56:43;;;;;;;14.57;13.23;;;27.00;72.70;;;;;;5125940;28;20038;-51
2022/04/02 07:59:22;;;;;;;14.38;12.98;;;27.00;72.80;;;;;;5126049;28;20074;-51
2022/04/02 08:01:50;;;;;;;13.93;12.35;;;27.00;72.70;;;;;;5125782;28;20027;-51
2022/04/02 08:04:19;;;;;;;15.50;12.40;;;27.00;72.90;;;;;;5125897;28;20087;-56
2022/04/02 08:06:49;;;;;;;14.10;12.60;;;27.00;72.70;;;;;;5126127;28;20027;-53
2022/04/02 08:09:17;;;;;;;13.85;12.35;;;27.00;72.60;;;;;;5125649;28;20015;-52
2022/04/02 08:11:45;;;;;;;14.00;12.60;;;27.00;72.70;;;;;;5125637;28;20268;-52
2022/04/02 08:14:13;;;;;;;14.52;12.95;;;27.00;72.80;;;;;;5125321;28;20301;-55
2022/04/02 08:16:45;;;;;;;13.48;12.18;;;27.00;72.50;;;;;;5126208;28;20054;-54
2022/04/02 08:19:12;;;;;;;15.57;12.65;;;27.00;72.40;;;;;;5125748;28;20023;-55
2022/04/02 08:21:39;;;;;;;15.70;13.15;;;27.00;72.80;;;;;;5125479;28;20035;-54
2022/04/02 08:24:06;;;;;;;14.23;12.85;;;27.00;72.80;;;;;;5125669;28;20028;-54
2022/04/02 08:27:13;;;;;;;15.48;12.40;;;27.00;72.70;;;;;;5125621;28;20035;-52
2022/04/02 08:30:01;;;;;;;14.45;13.05;;;27.00;72.70;;;;;;5094282;28;20216;-55
2022/04/02 08:32:54;;;;;;;14.95;13.20;;;27.00;72.70;;;;;;5125628;28;20084;-54
2022/04/02 08:35:41;;;;;;;14.80;12.35;;;27.00;72.70;;;;;;5125506;28;20029;-53
2022/04/02 08:38:24;;;;;;;15.32;12.00;;;27.00;72.60;;;;;;5125532;28;20042;-52
2022/04/02 08:41:16;;;;;;;14.63;13.13;;;27.00;72.80;;;;;;5125098;28;20016;-53
2022/04/02 08:44:08;;;;;;;15.20;12.55;;;26.90;72.80;;;;;;5125332;28;20295;-52
2022/04/02 08:46:36;;;;;;;14.10;12.70;;;27.00;72.70;;;;;;5125244;28;20065;-52
2022/04/02 08:49:38;;;;;;;14.45;12.82;;;27.00;72.80;;;;;;5124801;28;20324;-54
2022/04/02 08:52:19;;;;;;;14.25;12.85;;;27.00;73.10;;;;;;5125177;28;20065;-57
2022/04/02 08:55:10;;;;;;;13.52;12.23;;;27.00;72.30;;;;;;5125068;28;20019;-56
2022/04/02 08:57:43;;;;;;;13.75;12.13;;;26.90;72.10;;;;;;5125094;28;20055;-55
2022/04/02 09:00:13;;;;;;;16.10;13.60;;;27.00;72.40;;;;;;5124876;28;20020;-52
2022/04/02 09:03:00;;;;;;;14.32;12.65;;;27.00;72.60;;;;;;5124990;28;20035;-54
2022/04/02 09:05:47;;;;;;;16.60;12.25;;;27.00;72.50;;;;;;5124917;28;20387;-53
2022/04/02 09:08:33;;;;;;;13.77;12.45;;;26.90;72.60;;;;;;5125100;28;20288;-52
2022/04/02 09:11:22;;;;;;;15.23;13.30;;;27.00;72.70;;;;;;5124691;28;20212;-56
2022/04/02 09:14:08;;;;;;;15.50;13.93;;;27.00;72.80;;;;;;5124838;28;20338;-57
2022/04/02 09:17:01;;;;;;;14.43;13.07;;;27.00;72.80;;;;;;5124489;28;20038;-54
2022/04/02 09:20:15;;;;;;;14.65;13.25;;;27.00;72.80;;;;;;5124565;28;20027;-53
2022/04/02 09:23:06;;;;;;;13.55;12.25;;;26.90;72.90;;;;;;5052149;28;20105;-53
2022/04/02 09:26:11;;;;;;;14.88;13.38;;;26.90;73.30;;;;;;5124380;28;20211;-57
2022/04/02 09:28:43;;;;;;;16.02;13.30;;;27.00;73.80;;;;;;5022361;28;20088;-51
2022/04/02 09:31:22;;;;;;;14.32;12.93;;;27.00;73.30;;;;;;5107755;28;20279;-52
2022/04/02 09:34:03;;;;;;;14.73;13.25;;;26.90;73.20;;;;;;5124514;28;20028;-54
2022/04/02 09:36:47;;;;;;;14.55;13.02;;;26.90;73.10;;;;;;5124251;28;20020;-54
2022/04/02 09:39:22;;;;;;;14.43;13.02;;;26.90;73.20;;;;;;5124570;28;20245;-58
2022/04/02 09:42:09;;;;;;;14.82;13.00;;;26.90;73.30;;;;;;5124147;28;20032;-54
2022/04/02 09:45:15;;;;;;;14.35;12.95;;;26.90;73.30;;;;;;5124239;28;20019;-52
2022/04/02 09:47:59;;;;;;;14.77;13.15;;;26.90;73.50;;;;;;5073441;28;20027;-51
2022/04/02 09:50:28;;;;;;;14.27;12.82;;;26.90;73.30;;;;;;5124254;28;20040;-55
2022/04/02 09:53:05;;;;;;;13.35;12.15;;;26.90;73.60;;;;;;5124586;28;20028;-51
2022/04/02 09:56:10;;;;;;;17.58;12.70;;;26.90;73.70;;;;;;5124178;28;20208;-53
2022/04/02 09:59:13;;;;;;;15.23;12.95;;;26.90;73.80;;;;;;5106412;28;20226;-49
2022/04/02 10:01:43;;;;;;;13.90;12.55;;;26.90;73.40;;;;;;5123998;28;20103;-50
2022/04/02 10:04:31;;;;;;;14.07;12.70;;;26.90;73.70;;;;;;5124282;28;20015;-53
2022/04/02 10:07:02;;;;;;;12.73;11.38;;;26.90;74.10;;;;;;5124014;28;20024;-52
2022/04/02 10:09:32;;;;;;;13.88;12.38;;;26.90;73.90;;;;;;5124154;28;20059;-55
2022/04/02 10:12:01;;;;;;;13.40;11.70;;;27.00;73.70;;;;;;5124303;28;20032;-55
2022/04/02 10:14:30;;;;;;;14.23;12.75;;;27.00;74.00;;;;;;5123880;28;20027;-51
2022/04/02 10:17:08;;;;;;;14.43;12.95;;;27.00;73.70;;;;;;5123911;28;20028;-52
2022/04/02 10:19:39;;;;;;;14.88;12.18;;;27.00;73.90;;;;;;5123856;28;20211;-58
2022/04/02 10:22:18;;;;;;;14.32;12.48;;;27.00;74.00;;;;;;5124160;28;20027;-55
2022/04/02 10:24:53;;;;;;;13.90;12.43;;;27.00;74.10;;;;;;5124075;28;20023;-53
2022/04/02 10:27:40;;;;;;;15.23;12.90;;;27.00;74.50;;;;;;5124127;28;20070;-53
2022/04/02 10:30:12;;;;;;;14.63;13.13;;;27.00;74.40;;;;;;5123666;28;20080;-50
2022/04/02 10:33:26;;;;;;;17.58;13.00;;;27.00;74.60;;;;;;5124165;28;20030;-51
2022/04/02 10:35:50;;;;;;;14.80;12.40;;;27.00;74.60;;;;;;5124599;28;20185;-52
2022/04/02 10:38:39;;;;;;;13.95;12.27;;;27.00;74.70;;;;;;5127977;28;20027;-56
2022/04/02 10:41:15;;;;;;;15.95;12.68;;;27.00;74.70;;;;;;5127523;28;20072;-58
2022/04/02 10:43:46;;;;;;;17.55;12.50;;;27.00;74.90;;;;;;5127631;28;20023;-55
2022/04/02 10:46:20;;;;;;;13.40;12.10;;;27.00;74.90;;;;;;5127372;28;20019;-55
2022/04/02 10:48:59;;;;;;;14.73;12.30;;;27.00;75.10;;;;;;5127456;28;20232;-54
2022/04/02 10:51:28;;;;;;;19.70;13.32;;;27.00;75.40;;;;;;5127324;28;20015;-53
2022/04/02 10:54:04;;;;;;;14.38;12.45;;;26.90;75.10;;;;;;5127420;28;20217;-51
2022/04/02 10:56:48;;;;;;;14.48;12.32;;;27.00;75.50;;;;;;5126996;28;20026;-51
2022/04/02 10:59:18;;;;;;;14.10;12.50;;;27.00;75.50;;;;;;5127215;28;20215;-51
2022/04/02 11:01:49;;;;;;;15.38;12.93;;;26.90;75.60;;;;;;5126975;28;20045;-57
2022/04/02 11:04:18;;;;;;;14.70;13.10;;;26.90;75.60;;;;;;5127097;28;20022;-53
2022/04/02 11:06:46;;;;;;;16.13;12.77;;;26.90;75.70;;;;;;5127272;28;20012;-50
2022/04/02 11:09:25;;;;;;;14.25;12.85;;;26.90;76.00;;;;;;5126980;28;20020;-54
2022/04/02 11:12:22;;;;;;;15.43;12.32;;;26.90;76.10;;;;;;5127258;28;20050;-55
2022/04/02 11:14:50;;;;;;;15.50;12.95;;;26.90;76.30;;;;;;5122668;28;20036;-53
2022/04/02 11:17:30;;;;;;;15.70;12.70;;;26.90;76.20;;;;;;5126996;28;20024;-51
2022/04/02 11:20:17;;;;;;;16.90;12.80;;;27.00;76.50;;;;;;5126734;28;20065;-51
2022/04/02 11:22:54;;;;;;;20.77;12.88;;;27.00;76.40;;;;;;5126788;28;20242;-52
2022/04/02 11:25:36;;;;;;;18.33;12.85;;;27.00;76.60;;;;;;5126633;28;20083;-52
2022/04/02 11:28:09;;;;;;;17.48;12.98;;;27.00;76.90;;;;;;5126921;28;20096;-54
2022/04/02 11:30:42;;;;;;;20.23;13.73;;;27.00;76.90;;;;;;5126691;28;20197;-54
2022/04/02 11:33:21;;;;;;;15.35;12.55;;;27.00;76.70;;;;;;5126886;28;20072;-55
2022/04/02 11:35:59;;;;;;;13.98;12.02;;;27.00;77.10;;;;;;5126435;28;20258;-51
2022/04/02 11:38:57;;;;;;;15.07;12.32;;;27.00;77.00;;;;;;5126993;28;20216;-52
2022/04/02 11:41:42;;;;;;;15.27;12.55;;;27.00;77.20;;;;;;5126165;28;20075;-55
2022/04/02 11:44:16;;;;;;;15.75;13.60;;;27.00;77.10;;;;;;5126464;28;20162;-52
2022/04/02 11:47:17;;;;;;;17.77;12.85;;;27.00;77.40;;;;;;5126261;28;20050;-51
2022/04/02 11:49:46;;;;;;;14.35;12.85;;;27.00;77.60;;;;;;5072506;28;20040;-50
2022/04/02 11:52:16;;;;;;;14.60;13.05;;;27.00;77.70;;;;;;5126159;28;20024;-52
2022/04/02 11:54:49;;;;;;;14.48;12.55;;;27.00;77.90;;;;;;5108444;28;20028;-51
2022/04/02 11:57:17;;;;;;;14.10;12.60;;;27.10;78.00;;;;;;5126438;28;20020;-52
2022/04/02 12:00:05;;;;;;;14.55;12.57;;;27.00;78.00;;;;;;5125908;28;20035;-53
2022/04/02 12:02:43;;;;;;;13.80;12.43;;;27.10;78.20;;;;;;5126053;28;20027;-51
2022/04/02 12:05:14;;;;;;;13.75;12.35;;;27.10;78.40;;;;;;5125878;28;20316;-50
2022/04/02 12:07:45;;;;;;;14.15;12.65;;;27.10;78.70;;;;;;5126320;28;20027;-55
2022/04/02 12:10:18;;;;;;;15.17;12.17;;;27.00;78.80;;;;;;5125699;28;20083;-55
2022/04/02 12:12:51;;;;;;;16.08;12.52;;;27.10;78.80;;;;;;5126033;28;20045;-56
2022/04/02 12:15:18;;;;;;;14.10;12.80;;;27.10;79.00;;;;;;5125661;28;20031;-53
2022/04/02 12:18:00;;;;;;;13.90;12.50;;;27.10;79.30;;;;;;5125933;28;20299;-52
2022/04/02 12:20:29;;;;;;;14.47;12.73;;;27.10;79.60;;;;;;5125755;28;20038;-53
2022/04/02 12:23:13;;;;;;;16.02;12.88;;;27.10;79.80;;;;;;5125676;28;20035;-53
2022/04/02 12:25:41;;;;;;;13.75;12.23;;;27.10;79.90;;;;;;5125658;28;20191;-56
2022/04/02 12:28:17;;;;;;;14.27;12.43;;;27.10;80.00;;;;;;5125777;28;20169;-55
2022/04/02 12:30:48;;;;;;;15.85;12.45;;;27.10;80.80;;;;;;5125393;28;20126;-56
2022/04/02 12:33:18;;;;;;;15.32;13.18;;;27.10;80.40;;;;;;5125752;28;20024;-56
2022/04/02 12:35:55;;;;;;;15.07;12.95;;;27.10;80.50;;;;;;5125416;28;20058;-53
2022/04/02 12:38:27;;;;;;;15.82;13.15;;;27.10;80.90;;;;;;5125592;28;20086;-54
2022/04/02 12:40:56;;;;;;;14.10;12.70;;;27.10;81.10;;;;;;5125150;28;20243;-55
2022/04/02 12:43:28;;;;;;;20.15;13.32;;;27.00;81.00;;;;;;5125583;28;20304;-55
2022/04/02 12:45:55;;;;;;;17.05;13.93;;;27.10;81.40;;;;;;5125123;28;20062;-54
2022/04/02 12:48:24;;;;;;;16.63;13.43;;;27.00;81.80;;;;;;5124924;28;20072;-53
2022/04/02 12:51:00;;;;;;;16.55;13.18;;;27.00;81.90;;;;;;5125015;28;20334;-51
2022/04/02 12:53:33;;;;;;;18.63;13.52;;;27.00;82.40;;;;;;5125357;28;20096;-52
2022/04/02 12:56:06;;;;;;;14.55;12.88;;;27.00;82.70;;;;;;5124917;28;20109;-53